Pagrindinis puslapis
METAR-TAF:

METAR-TAF

Oro uostai :

Le Tontutos tarptautinis oro uostas

Numėja La Tontouta, Naujoji Kaledonija

platuma: 22-01S, ilguma: 166-13E, Aukštis: 16 m

Dabartinis oras

Ataskaita buvo paskelbta 31 minutes, ne 07:00 UTC
Vėjas 2 kt nuo kintamojo kryptimis
Temperatūra 24°C
Drėgmė 69%
Slėgis 1017 hPa
Matomumas 10 km arba daugiau
nėra debesų žemiau 1500 m ir nėra kamuolinių lietaus debesų

METAR: NWWW 270700Z AUTO VRB02KT CAVOK 24/18 Q1017 NOSIG

Laikas: 18:31 (07:31 UTC)

Prognozė

Ataskaita buvo paskelbta 2 valandos ir 31 minutes, ne 05:00 UTC
Prognozė galioja nuo 27 metu 06 UTC su 28 metu 06 UTC
Vėjas 2 kt nuo kintamojo kryptimis
Matomumas 10 km arba daugiau
Mažai debesys ne aukštis 5000 ft

TAF: NWWW 270500Z 2706/2806 VRB02KT 9999 FEW050

Orai ataskaitas ir orų prognozės (METAR, TAF).

turimą stotys yra geltonos ir raudonos taškus žemėlapyje.

Perkelti pele per norėdami pamatyti stoties vardą.

Tada spustelėkite, norėdami matyti oro stebėjimo ir prognozės.

Norėdami pakeisti žemėlapį: spustelėkite ant žalios mygtukų su juodo kryžiaus žemyn,; žalią mygtuką su brūkšneliu, jei norite nutolinti; arba žalių rodyklių gretimoms žemėlapius.


METAR-TAF: